Tashkent, Uzbekistan
Current Conditions -  °F | °C
As of 5:30 PM on Tuesday 27 Jan 2015 (Local Time) from UTTT Reporting Station
Smoke Smoke  
Wind Chill: 19°   Ceiling: Unl
Heat Index: 25°   Visibility: 1.1mi
Dew Point: 19°   Wind: 5mph
Humidity: 80%   Direction: 150°SSE
Pressure: 30.39"   Gusts: NA
Location:  41.31°N, 69.3°E
Report Text: UTTT 271230Z 15004KT 1900 BR FU NSC M04/M07 Q1029 R88/CLRD70NOSIG
Loading
Personal Weather Stations






























Interactive Weather Map New forecast layout! Learn more

10-Day Weather Forecast

Advertisements
Track Severe Weather on mobile